createdAt,value
2023-01-27T00:04:13.272Z,3.85
2023-01-27T00:06:41.338Z,3.55
2023-01-27T00:09:12.122Z,3.15
2023-01-27T00:11:58.202Z,3.40
2023-01-27T00:14:26.069Z,3.60
2023-01-27T00:16:53.580Z,3.92
2023-01-27T00:19:21.628Z,3.72
2023-01-27T00:22:08.228Z,4.18
2023-01-27T00:24:38.608Z,3.45
2023-01-27T00:27:09.099Z,3.92
2023-01-27T00:29:41.051Z,3.83
2023-01-27T00:32:28.521Z,4.00
2023-01-27T00:34:56.067Z,3.75
2023-01-27T00:37:25.275Z,3.20
2023-01-27T00:39:53.104Z,3.53
2023-01-27T00:42:21.888Z,4.43
2023-01-27T00:45:10.105Z,4.20
2023-01-27T00:47:37.937Z,3.88
2023-01-27T00:50:05.739Z,4.80
2023-01-27T00:52:33.568Z,3.67
2023-01-27T00:55:02.557Z,4.32
2023-01-27T00:57:30.298Z,3.75
2023-01-27T00:59:59.850Z,3.60
2023-01-27T01:03:37.763Z,3.80
2023-01-27T01:06:08.292Z,4.07
2023-01-27T01:08:37.837Z,4.32
2023-01-27T01:11:06.498Z,3.83
2023-01-27T01:13:34.467Z,3.83
2023-01-27T01:16:06.492Z,4.30
2023-01-27T01:18:35.144Z,4.30
2023-01-27T01:21:02.943Z,4.72
2023-01-27T01:23:30.512Z,5.50
2023-01-27T01:25:58.372Z,4.65
2023-01-27T01:28:26.889Z,3.97
2023-01-27T01:30:54.743Z,4.32
2023-01-27T01:33:22.904Z,4.85
2023-01-27T01:35:54.586Z,4.68
2023-01-27T01:38:22.613Z,4.85
2023-01-27T01:40:52.970Z,4.47
2023-01-27T01:43:23.248Z,5.22
2023-01-27T01:45:54.015Z,4.13
2023-01-27T01:48:24.789Z,5.30
2023-01-27T01:51:05.173Z,4.88
2023-01-27T01:53:36.385Z,5.38
2023-01-27T01:56:07.799Z,5.10
2023-01-27T01:58:36.152Z,4.85
2023-01-27T02:01:05.123Z,5.90
2023-01-27T02:03:36.867Z,5.80
2023-01-27T02:06:05.527Z,5.38
2023-01-27T02:08:36.755Z,5.70
2023-01-27T02:11:05.645Z,5.10
2023-01-27T02:13:33.242Z,4.97
2023-01-27T02:16:03.028Z,5.53
2023-01-27T02:18:31.115Z,6.20
2023-01-27T02:20:59.509Z,5.38
2023-01-27T02:23:53.555Z,6.13
2023-01-27T02:26:26.791Z,6.65
2023-01-27T02:28:56.342Z,6.30
2023-01-27T02:31:24.089Z,6.38
2023-01-27T02:33:54.594Z,7.20
2023-01-27T02:36:22.470Z,6.78
2023-01-27T02:38:54.647Z,7.20
2023-01-27T02:41:26.673Z,7.55
2023-01-27T02:43:55.389Z,7.25
2023-01-27T02:46:22.849Z,7.75
2023-01-27T02:48:51.435Z,7.57
2023-01-27T02:51:18.989Z,8.07
2023-01-27T02:53:47.987Z,8.57
2023-01-27T02:56:17.965Z,7.60
2023-01-27T02:58:45.552Z,8.48
2023-01-27T03:01:20.095Z,8.38
2023-01-27T03:03:47.803Z,8.32
2023-01-27T03:06:20.042Z,8.57
2023-01-27T03:08:48.074Z,8.13
2023-01-27T03:11:36.775Z,7.95
2023-01-27T03:14:05.239Z,10.10
2023-01-27T03:16:51.511Z,10.50
2023-01-27T03:19:20.677Z,10.60
2023-01-27T03:21:51.731Z,10.73
2023-01-27T03:24:21.934Z,10.52
2023-01-27T03:26:50.510Z,12.68
2023-01-27T03:29:40.528Z,11.30
2023-01-27T03:32:08.206Z,12.65
2023-01-27T03:34:36.076Z,13.05
2023-01-27T03:37:28.021Z,12.70
2023-01-27T03:40:18.992Z,12.50
2023-01-27T03:43:13.059Z,13.00
2023-01-27T03:46:02.768Z,12.38
2023-01-27T03:48:32.304Z,12.52
2023-01-27T03:51:00.336Z,12.95
2023-01-27T03:53:28.193Z,12.93
2023-01-27T03:55:55.719Z,12.68
2023-01-27T03:58:27.619Z,12.52
2023-01-27T04:00:59.175Z,12.75
2023-01-27T04:03:46.896Z,13.45
2023-01-27T04:06:35.353Z,12.63
2023-01-27T04:09:03.625Z,12.55
2023-01-27T04:11:54.009Z,13.40
2023-01-27T04:14:26.111Z,14.45
2023-01-27T04:16:54.830Z,12.60
2023-01-27T04:19:22.445Z,12.90
2023-01-27T04:21:56.328Z,12.65
2023-01-27T04:24:24.619Z,12.55
2023-01-27T04:26:54.822Z,12.00
2023-01-27T04:29:23.914Z,12.30
2023-01-27T04:31:56.316Z,11.75
2023-01-27T04:34:24.185Z,11.85
2023-01-27T04:36:52.564Z,11.38
2023-01-27T04:39:21.494Z,11.88
2023-01-27T04:41:50.452Z,12.30
2023-01-27T04:44:21.269Z,11.75
2023-01-27T04:46:52.372Z,10.90
2023-01-27T04:49:20.256Z,11.43
2023-01-27T04:51:47.857Z,11.90
2023-01-27T04:54:17.827Z,11.95
2023-01-27T04:57:04.059Z,11.55
2023-01-27T04:59:31.609Z,11.10
2023-01-27T05:01:59.944Z,10.63
2023-01-27T05:04:27.833Z,11.43
2023-01-27T05:06:55.999Z,12.20
2023-01-27T05:09:23.767Z,11.85
2023-01-27T05:11:52.461Z,12.43
2023-01-27T05:14:24.747Z,11.40
2023-01-27T05:16:53.168Z,11.85
2023-01-27T05:19:21.656Z,11.70
2023-01-27T05:21:50.074Z,11.60
2023-01-27T05:24:22.931Z,11.18
2023-01-27T05:26:52.055Z,10.73
2023-01-27T05:29:20.138Z,12.23
2023-01-27T05:31:47.743Z,10.98
2023-01-27T05:34:17.029Z,10.95
2023-01-27T05:36:44.824Z,10.30
2023-01-27T05:39:12.475Z,10.82
2023-01-27T05:41:40.265Z,9.95
2023-01-27T05:44:07.954Z,10.32
2023-01-27T05:46:38.933Z,10.43
2023-01-27T05:49:07.119Z,9.77
2023-01-27T05:51:36.929Z,8.90
2023-01-27T05:54:04.870Z,9.07
2023-01-27T05:56:32.598Z,8.85
2023-01-27T05:59:00.253Z,8.30
2023-01-27T06:01:29.661Z,7.80
2023-01-27T06:03:57.733Z,7.90
2023-01-27T06:06:26.423Z,8.60
2023-01-27T06:08:54.094Z,7.55
2023-01-27T06:11:24.550Z,8.02
2023-01-27T06:13:52.854Z,7.70
2023-01-27T06:16:21.387Z,6.60
2023-01-27T06:18:50.387Z,6.25
2023-01-27T06:21:18.494Z,6.07
2023-01-27T06:23:46.110Z,6.55
2023-01-27T06:26:16.554Z,6.47
2023-01-27T06:28:44.367Z,6.00
2023-01-27T06:31:18.280Z,6.40
2023-01-27T06:33:45.962Z,5.93
2023-01-27T06:36:15.039Z,6.53
2023-01-27T06:38:43.139Z,5.50
2023-01-27T06:41:11.280Z,5.20
2023-01-27T06:43:38.948Z,5.13
2023-01-27T06:46:06.933Z,5.20
2023-01-27T06:48:34.926Z,5.68
2023-01-27T06:51:02.431Z,5.50
2023-01-27T06:53:29.971Z,5.72
2023-01-27T06:55:58.183Z,5.30
2023-01-27T06:58:26.126Z,5.40
2023-01-27T07:00:54.871Z,5.28
2023-01-27T07:03:23.384Z,5.22
2023-01-27T07:05:51.680Z,4.63
2023-01-27T07:08:20.066Z,5.38
2023-01-27T07:10:48.729Z,5.32
2023-01-27T07:13:16.691Z,5.45
2023-01-27T07:15:44.401Z,5.43
2023-01-27T07:18:14.644Z,5.80
2023-01-27T07:20:42.804Z,5.30
2023-01-27T07:23:11.083Z,5.47
2023-01-27T07:25:39.440Z,5.80
2023-01-27T07:28:07.635Z,6.22
2023-01-27T07:30:36.242Z,7.00
2023-01-27T07:33:12.349Z,5.78
2023-01-27T07:35:42.010Z,5.85
2023-01-27T07:38:10.029Z,5.75
2023-01-27T07:40:37.682Z,5.07
2023-01-27T07:43:05.406Z,5.97
2023-01-27T07:45:35.347Z,4.28
2023-01-27T07:48:07.419Z,4.82
2023-01-27T07:50:35.905Z,5.25
2023-01-27T07:53:04.618Z,4.65
2023-01-27T07:55:33.228Z,5.32
2023-01-27T07:58:01.107Z,4.90
2023-01-27T08:00:29.279Z,5.00
2023-01-27T08:02:57.783Z,4.35
2023-01-27T08:05:25.649Z,4.70
2023-01-27T08:07:54.644Z,4.95
2023-01-27T08:10:22.996Z,4.75
2023-01-27T08:12:52.604Z,4.35
2023-01-27T08:15:20.881Z,4.30
2023-01-27T08:17:57.902Z,4.20
2023-01-27T08:20:27.036Z,4.07
2023-01-27T08:22:57.402Z,4.50
2023-01-27T08:25:25.346Z,4.13
2023-01-27T08:27:53.182Z,4.22
2023-01-27T08:30:21.390Z,3.95
2023-01-27T08:32:50.496Z,3.83
2023-01-27T08:35:18.319Z,3.80
2023-01-27T08:37:48.475Z,4.00
2023-01-27T08:40:16.815Z,3.90
2023-01-27T08:42:44.386Z,4.53
2023-01-27T08:45:12.391Z,4.28
2023-01-27T08:47:40.114Z,4.18
2023-01-27T08:50:08.053Z,4.78
2023-01-27T08:52:35.579Z,4.40
2023-01-27T08:55:03.269Z,4.43
2023-01-27T08:57:32.480Z,4.65
2023-01-27T09:00:00.382Z,4.50
2023-01-27T09:02:28.403Z,4.63
2023-01-27T09:04:56.257Z,4.80
2023-01-27T09:07:23.883Z,4.35
2023-01-27T09:10:07.764Z,4.85
2023-01-27T09:12:42.403Z,4.43
2023-01-27T09:15:10.378Z,4.22
2023-01-27T09:17:37.955Z,4.65
2023-01-27T09:20:05.803Z,4.47
2023-01-27T09:22:33.458Z,4.70
2023-01-27T09:25:01.960Z,4.63
2023-01-27T09:27:38.749Z,4.35
2023-01-27T09:30:07.846Z,4.80
2023-01-27T09:32:35.394Z,4.88
2023-01-27T09:35:02.852Z,4.68
2023-01-27T09:37:30.818Z,4.53
2023-01-27T09:40:00.772Z,4.72
2023-01-27T09:42:37.855Z,4.90
2023-01-27T09:45:23.847Z,4.90
2023-01-27T09:48:09.931Z,7.35
2023-01-27T09:50:44.460Z,5.30
2023-01-27T09:53:22.540Z,4.78
2023-01-27T09:56:02.827Z,4.63
2023-01-27T09:58:36.915Z,4.75
2023-01-27T10:01:18.572Z,4.50
2023-01-27T10:04:04.857Z,4.13
2023-01-27T10:06:41.421Z,4.90
2023-01-27T10:09:12.464Z,4.40
2023-01-27T10:11:48.603Z,4.80
2023-01-27T10:14:35.673Z,4.50
2023-01-27T10:17:09.413Z,4.53
2023-01-27T10:20:10.501Z,4.60
2023-01-27T10:22:44.137Z,4.93
2023-01-27T10:25:14.769Z,5.03
2023-01-27T10:27:48.264Z,4.43
2023-01-27T10:30:16.101Z,5.20
2023-01-27T10:32:53.831Z,5.35
2023-01-27T10:35:41.912Z,5.32
2023-01-27T10:38:18.051Z,5.72
2023-01-27T10:40:45.588Z,5.70
2023-01-27T10:43:28.513Z,4.88
2023-01-27T10:46:07.385Z,5.20
2023-01-27T10:48:43.771Z,5.97
2023-01-27T10:51:25.805Z,5.93
2023-01-27T10:53:53.595Z,5.35
2023-01-27T10:56:30.616Z,5.70
2023-01-27T10:59:13.322Z,5.35
2023-01-27T11:01:44.299Z,5.35
2023-01-27T11:04:16.840Z,5.63
2023-01-27T11:06:45.666Z,5.65
2023-01-27T11:09:13.248Z,5.25
2023-01-27T11:11:47.024Z,6.25
2023-01-27T11:14:27.252Z,5.60
2023-01-27T11:16:59.255Z,5.68
2023-01-27T11:19:41.168Z,5.72
2023-01-27T11:22:18.167Z,5.18
2023-01-27T11:24:47.146Z,5.80
2023-01-27T11:27:17.478Z,5.68
2023-01-27T11:30:04.451Z,5.68
2023-01-27T11:32:37.764Z,5.07
2023-01-27T11:35:07.556Z,5.57
2023-01-27T11:37:36.299Z,5.47
2023-01-27T11:40:05.038Z,5.20
2023-01-27T11:42:35.503Z,4.93
2023-01-27T11:45:03.286Z,5.65
2023-01-27T11:47:32.955Z,5.05
2023-01-27T11:50:01.481Z,5.20
2023-01-27T11:52:29.873Z,5.68
2023-01-27T11:55:00.522Z,5.45
2023-01-27T11:57:28.544Z,5.07
2023-01-27T11:59:59.840Z,5.80
2023-01-27T12:02:44.771Z,5.38
2023-01-27T12:05:20.141Z,6.18
2023-01-27T12:07:53.011Z,5.47
2023-01-27T12:10:42.518Z,5.28
2023-01-27T12:13:21.314Z,5.60
2023-01-27T12:15:50.142Z,5.15
2023-01-27T12:18:17.864Z,5.00
2023-01-27T12:20:51.385Z,5.53
2023-01-27T12:23:27.947Z,5.40
2023-01-27T12:26:00.104Z,4.40
2023-01-27T12:28:33.342Z,4.65
2023-01-27T12:31:27.463Z,4.70
2023-01-27T12:34:00.862Z,4.57
2023-01-27T12:36:30.321Z,4.35
2023-01-27T12:39:02.321Z,4.50
2023-01-27T12:41:32.954Z,4.38
2023-01-27T12:44:10.047Z,4.60
2023-01-27T12:46:41.691Z,3.88
2023-01-27T12:49:11.047Z,4.28
2023-01-27T12:51:45.353Z,4.50
2023-01-27T12:54:16.130Z,3.78
2023-01-27T12:56:44.023Z,3.50
2023-01-27T12:59:17.274Z,3.72
2023-01-27T13:01:47.209Z,4.40
2023-01-27T13:04:17.811Z,4.25
2023-01-27T13:07:06.114Z,3.90
2023-01-27T13:09:35.884Z,4.32
2023-01-27T13:12:10.913Z,4.68
2023-01-27T13:14:41.569Z,4.45
2023-01-27T13:17:27.905Z,4.55
2023-01-27T13:19:57.144Z,4.30
2023-01-27T13:22:26.624Z,4.20
2023-01-27T13:24:57.881Z,4.22
2023-01-27T13:27:26.212Z,3.92
2023-01-27T13:30:01.675Z,4.45
2023-01-27T13:32:32.412Z,4.40
2023-01-27T13:35:29.492Z,4.78
2023-01-27T13:38:09.250Z,4.53
2023-01-27T13:40:36.971Z,4.45
2023-01-27T13:43:24.160Z,4.60
2023-01-27T13:46:16.878Z,4.72
2023-01-27T13:48:49.909Z,5.20
2023-01-27T13:51:22.173Z,4.70
2023-01-27T13:53:53.140Z,4.72
2023-01-27T13:56:21.156Z,4.40
2023-01-27T13:58:55.335Z,4.68
2023-01-27T14:01:25.764Z,3.58
2023-01-27T14:04:02.405Z,4.00
2023-01-27T14:06:48.305Z,3.47
2023-01-27T14:09:37.395Z,3.17
2023-01-27T14:12:25.245Z,3.28
2023-01-27T14:15:00.291Z,3.85
2023-01-27T14:17:34.100Z,4.20
2023-01-27T14:20:28.925Z,4.10
2023-01-27T14:23:15.866Z,4.20
2023-01-27T14:25:47.450Z,4.63
2023-01-27T14:28:31.236Z,4.82
2023-01-27T14:31:01.901Z,4.75
2023-01-27T14:33:35.870Z,5.03
2023-01-27T14:36:26.698Z,4.82
2023-01-27T14:39:04.565Z,4.78
2023-01-27T14:41:46.746Z,5.40
2023-01-27T14:44:17.072Z,5.82
2023-01-27T14:46:48.412Z,6.28
2023-01-27T14:49:16.144Z,6.10
2023-01-27T14:51:52.369Z,5.90
2023-01-27T14:54:38.617Z,6.10
2023-01-27T14:57:09.015Z,5.82
2023-01-27T14:59:39.536Z,5.70
2023-01-27T15:04:50.763Z,6.30
2023-01-27T15:07:23.243Z,5.78
2023-01-27T15:10:01.105Z,5.70
2023-01-27T15:12:48.193Z,5.90
2023-01-27T15:15:18.940Z,6.50
2023-01-27T15:17:53.250Z,6.43
2023-01-27T15:20:30.729Z,6.97
2023-01-27T15:23:08.352Z,7.28
2023-01-27T15:25:44.655Z,7.50
2023-01-27T15:28:17.203Z,7.28
2023-01-27T15:31:03.306Z,7.10
2023-01-27T15:33:51.053Z,6.93
2023-01-27T15:36:40.533Z,7.32
2023-01-27T15:39:11.080Z,7.38
2023-01-27T15:41:39.347Z,7.40
2023-01-27T15:44:26.672Z,9.63
2023-01-27T15:46:55.396Z,7.80
2023-01-27T15:49:25.531Z,8.02
2023-01-27T15:51:54.452Z,8.23
2023-01-27T15:54:32.449Z,8.20
2023-01-27T15:57:04.309Z,7.55
2023-01-27T15:59:32.935Z,7.13
2023-01-27T16:02:03.009Z,7.53
2023-01-27T16:04:33.130Z,7.15
2023-01-27T16:07:02.568Z,7.53
2023-01-27T16:09:36.671Z,5.82
2023-01-27T16:12:05.979Z,6.97
2023-01-27T16:14:44.100Z,8.85
2023-01-27T16:17:18.961Z,8.95
2023-01-27T16:19:50.072Z,7.10
2023-01-27T16:22:22.426Z,6.70
2023-01-27T16:24:53.756Z,6.90
2023-01-27T16:27:24.996Z,7.32
2023-01-27T16:29:58.947Z,6.53
2023-01-27T16:32:36.438Z,6.03
2023-01-27T16:35:05.316Z,4.88
2023-01-27T16:37:37.671Z,5.40
2023-01-27T16:40:23.574Z,5.30
2023-01-27T16:42:54.281Z,5.50
2023-01-27T16:45:39.533Z,5.45
2023-01-27T16:48:16.441Z,5.47
2023-01-27T16:50:45.258Z,6.15
2023-01-27T16:53:16.503Z,6.18
2023-01-27T16:55:56.634Z,6.95
2023-01-27T16:58:39.803Z,10.00
2023-01-27T17:01:20.640Z,7.97
2023-01-27T17:03:48.884Z,6.88
2023-01-27T17:06:18.040Z,7.05
2023-01-27T17:08:47.063Z,7.80
2023-01-27T17:11:17.999Z,9.00
2023-01-27T17:13:45.721Z,8.73
2023-01-27T17:16:32.115Z,7.20
2023-01-27T17:19:20.544Z,10.70
2023-01-27T17:21:51.378Z,8.05
2023-01-27T17:24:22.381Z,8.35
2023-01-27T17:26:51.102Z,9.00
2023-01-27T17:29:21.654Z,9.98
2023-01-27T17:31:51.263Z,7.47
2023-01-27T17:34:20.154Z,7.50
2023-01-27T17:37:15.546Z,7.97
2023-01-27T17:39:43.541Z,7.70
2023-01-27T17:42:34.326Z,6.88
2023-01-27T17:45:34.214Z,6.97
2023-01-27T17:48:02.818Z,6.45
2023-01-27T17:50:37.927Z,7.45
2023-01-27T17:53:14.829Z,7.55
2023-01-27T17:55:42.455Z,7.50
2023-01-27T17:58:17.885Z,7.35
2023-01-27T18:00:49.013Z,7.28
2023-01-27T18:03:26.615Z,7.20
2023-01-27T18:05:54.940Z,7.68
2023-01-27T18:08:23.731Z,7.68
2023-01-27T18:10:52.214Z,7.18
2023-01-27T18:13:20.544Z,7.13
2023-01-27T18:16:06.993Z,6.40
2023-01-27T18:18:35.847Z,6.57
2023-01-27T18:21:13.076Z,6.53
2023-01-27T18:23:45.425Z,6.80
2023-01-27T18:26:24.533Z,6.57
2023-01-27T18:28:54.832Z,6.50
2023-01-27T18:31:24.398Z,6.93
2023-01-27T18:34:07.638Z,6.95
2023-01-27T18:36:39.262Z,6.68
2023-01-27T18:39:27.161Z,6.40
2023-01-27T18:41:54.855Z,6.40
2023-01-27T18:44:27.401Z,6.72
2023-01-27T18:46:57.361Z,7.45
2023-01-27T18:49:24.981Z,6.38
2023-01-27T18:51:52.702Z,6.88
2023-01-27T18:54:21.430Z,6.68
2023-01-27T18:56:48.852Z,6.80
2023-01-27T18:59:16.422Z,7.22
2023-01-27T19:01:44.215Z,7.15
2023-01-27T19:04:13.018Z,7.60
2023-01-27T19:06:40.549Z,8.40
2023-01-27T19:09:10.641Z,8.23
2023-01-27T19:11:38.162Z,7.40
2023-01-27T19:14:05.629Z,7.80
2023-01-27T19:16:33.952Z,8.10
2023-01-27T19:19:02.409Z,7.68
2023-01-27T19:21:30.455Z,7.88
2023-01-27T19:23:58.443Z,8.38
2023-01-27T19:26:26.012Z,8.77
2023-01-27T19:28:55.105Z,8.68
2023-01-27T19:31:23.495Z,8.35
2023-01-27T19:33:51.530Z,8.63
2023-01-27T19:36:31.045Z,8.70
2023-01-27T19:39:02.375Z,8.60
2023-01-27T19:41:29.945Z,8.45
2023-01-27T19:43:57.790Z,8.73
2023-01-27T19:46:25.897Z,8.05
2023-01-27T19:48:53.468Z,8.35
2023-01-27T19:51:21.671Z,8.68
2023-01-27T19:53:49.074Z,9.20
2023-01-27T19:56:20.673Z,9.30
2023-01-27T19:58:52.979Z,9.02
2023-01-27T20:01:21.614Z,8.32
2023-01-27T20:03:49.982Z,9.68
2023-01-27T20:06:20.251Z,9.00
2023-01-27T20:08:48.661Z,9.25
2023-01-27T20:11:28.151Z,10.13
2023-01-27T20:13:56.155Z,9.93
2023-01-27T20:16:25.067Z,10.23
2023-01-27T20:18:53.448Z,9.88
2023-01-27T20:21:25.249Z,9.85
2023-01-27T20:23:53.178Z,10.23
2023-01-27T20:26:22.467Z,9.75
2023-01-27T20:28:54.675Z,10.38
2023-01-27T20:31:25.558Z,10.40
2023-01-27T20:33:53.311Z,10.13
2023-01-27T20:36:22.048Z,9.93
2023-01-27T20:38:50.587Z,10.30
2023-01-27T20:41:20.277Z,9.90
2023-01-27T20:43:48.358Z,9.33
2023-01-27T20:46:20.619Z,8.85
2023-01-27T20:48:48.195Z,9.23
2023-01-27T20:51:16.771Z,8.63
2023-01-27T20:53:48.192Z,9.07
2023-01-27T20:56:23.176Z,8.43
2023-01-27T20:58:51.794Z,8.48
2023-01-27T21:01:22.039Z,8.68
2023-01-27T21:03:51.761Z,8.48
2023-01-27T21:06:22.534Z,8.30
2023-01-27T21:08:51.825Z,9.25
2023-01-27T21:11:21.770Z,9.35
2023-01-27T21:13:53.047Z,8.65
2023-01-27T21:16:24.208Z,8.50
2023-01-27T21:18:52.076Z,9.32
2023-01-27T21:21:27.093Z,8.98
2023-01-27T21:23:55.239Z,8.75
2023-01-27T21:26:23.956Z,9.57
2023-01-27T21:29:00.962Z,9.82
2023-01-27T21:31:30.414Z,9.00
2023-01-27T21:34:00.321Z,9.75
2023-01-27T21:36:28.568Z,9.13
2023-01-27T21:38:57.119Z,8.52
2023-01-27T21:41:46.828Z,8.90
2023-01-27T21:44:38.185Z,8.55
2023-01-27T21:47:08.064Z,9.45
2023-01-27T21:49:57.144Z,8.90
2023-01-27T21:52:25.570Z,9.00
2023-01-27T21:54:53.249Z,9.15
2023-01-27T21:57:25.091Z,8.85
2023-01-27T21:59:53.850Z,8.85
2023-01-27T22:02:23.346Z,9.20
2023-01-27T22:04:56.449Z,8.73
2023-01-27T22:07:24.715Z,10.02
2023-01-27T22:09:53.184Z,9.20
2023-01-27T22:12:24.203Z,9.85
2023-01-27T22:14:53.529Z,9.88
2023-01-27T22:17:25.252Z,9.57
2023-01-27T22:19:53.291Z,9.35
2023-01-27T22:22:21.840Z,8.75
2023-01-27T22:24:50.332Z,9.75
2023-01-27T22:27:17.813Z,9.57
2023-01-27T22:29:45.383Z,9.55
2023-01-27T22:32:13.141Z,9.93
2023-01-27T22:34:40.912Z,8.68
2023-01-27T22:37:11.142Z,9.05
2023-01-27T22:39:42.696Z,10.27
2023-01-27T22:42:10.760Z,9.48
2023-01-27T22:44:38.712Z,9.68
2023-01-27T22:47:06.590Z,9.27
2023-01-27T22:49:34.100Z,8.30
2023-01-27T22:52:01.709Z,9.88
2023-01-27T22:54:30.239Z,9.27
2023-01-27T22:56:59.493Z,9.45
2023-01-27T22:59:28.720Z,10.40
2023-01-27T23:02:02.484Z,10.68
2023-01-27T23:04:30.780Z,10.88
2023-01-27T23:06:58.233Z,10.50
2023-01-27T23:09:26.065Z,10.05
2023-01-27T23:11:53.768Z,10.38
2023-01-27T23:14:22.629Z,10.18
2023-01-27T23:16:53.290Z,9.80
2023-01-27T23:19:22.153Z,10.32
2023-01-27T23:21:51.132Z,10.75
2023-01-27T23:24:19.054Z,11.52
2023-01-27T23:26:48.520Z,11.50
2023-01-27T23:29:24.631Z,10.27
2023-01-27T23:31:53.846Z,10.30
2023-01-27T23:34:22.672Z,11.10
2023-01-27T23:36:51.269Z,10.45
2023-01-27T23:39:20.269Z,10.88
2023-01-27T23:41:48.004Z,10.85
2023-01-27T23:44:15.638Z,10.55
2023-01-27T23:46:43.477Z,11.63
2023-01-27T23:49:13.164Z,10.35
2023-01-27T23:51:41.236Z,11.32
2023-01-27T23:54:09.088Z,11.00
2023-01-27T23:56:37.866Z,11.32
2023-01-27T23:59:05.476Z,11.02
